Time;durP1;ratioP1;P1;durP2;ratioP2;P2;SDS_P1;SDS_P2;PMS_P1;PMS_P2;Temp;Humidity;BMP_temperature;BMP_pressure;BME280_temperature;BME280_humidity;BME280_pressure;Samples;Min_cycle;Max_cycle;Signal;HPM_P1;HPM_P2
2022/06/17 00:01:34;;;;;;;1.88;1.25;;;17.60;75.90;;;;;;6274737;28;20041;-85
2022/06/17 00:04:36;;;;;;;2.05;1.08;;;17.60;76.50;;;;;;6274443;28;20510;-85
2022/06/17 00:07:40;;;;;;;3.17;0.93;;;17.50;77.10;;;;;;6267672;28;20045;-83
2022/06/17 00:10:42;;;;;;;1.50;1.17;;;17.50;77.30;;;;;;6279761;28;20063;-83
2022/06/17 00:13:44;;;;;;;5.72;1.30;;;17.40;77.70;;;;;;6279886;28;20052;-85
2022/06/17 00:16:48;;;;;;;2.38;1.00;;;17.50;78.20;;;;;;6253566;28;20052;-85
2022/06/17 00:19:50;;;;;;;2.15;1.27;;;17.30;78.30;;;;;;6255223;28;20129;-84
2022/06/17 00:22:52;;;;;;;1.83;1.35;;;17.30;78.70;;;;;;6255236;28;20060;-85
2022/06/17 00:25:53;;;;;;;9.48;4.53;;;17.20;79.50;;;;;;6255938;28;20072;-84
2022/06/17 00:28:55;;;;;;;1.35;0.95;;;17.20;79.90;;;;;;6255494;28;20052;-84
2022/06/17 00:31:59;;;;;;;2.35;1.00;;;17.20;80.00;;;;;;6255137;28;20072;-84
2022/06/17 00:35:00;;;;;;;2.05;1.00;;;17.20;79.90;;;;;;6254963;28;20054;-85
2022/06/17 00:38:03;;;;;;;3.25;1.20;;;17.20;80.00;;;;;;6210805;28;20495;-86
2022/06/17 00:41:14;;;;;;;1.55;0.80;;;17.20;80.10;;;;;;6255687;28;20422;-83
2022/06/17 00:44:25;;;;;;;3.17;1.10;;;17.20;80.00;;;;;;6255907;28;20049;-84
2022/06/17 00:47:33;;;;;;;2.95;1.00;;;17.10;80.30;;;;;;6254335;28;20522;-85
2022/06/17 00:50:40;;;;;;;1.20;0.80;;;17.00;81.00;;;;;;6255516;28;20045;-84
2022/06/17 00:53:47;;;;;;;3.55;1.27;;;17.00;81.50;;;;;;6255202;28;20127;-84
2022/06/17 00:56:49;;;;;;;6.00;1.27;;;17.00;81.50;;;;;;6255439;28;20053;-85
2022/06/17 01:00:13;;;;;;;3.55;1.20;;;16.90;81.30;;;;;;6253584;28;20057;-84
2022/06/17 01:03:22;;;;;;;1.42;0.93;;;16.90;81.50;;;;;;6255349;28;20060;-83
2022/06/17 01:06:28;;;;;;;1.80;0.80;;;16.80;81.60;;;;;;6255236;28;20048;-85
2022/06/17 01:12:57;;;;;;;7.10;1.30;;;16.70;82.60;;;;;;6278797;28;20049;-86
2022/06/17 01:15:59;;;;;;;1.88;1.20;;;16.60;83.00;;;;;;6277349;28;20048;-84
2022/06/17 01:19:11;;;;;;;1.80;0.90;;;16.60;83.10;;;;;;6276759;28;20513;-82
2022/06/17 01:22:21;;;;;;;2.15;1.10;;;16.60;83.30;;;;;;6278425;28;20410;-85
2022/06/17 01:25:26;;;;;;;1.27;0.80;;;16.60;83.40;;;;;;6278679;28;20052;-84
2022/06/17 01:28:28;;;;;;;1.58;1.05;;;16.60;83.60;;;;;;6277919;28;20045;-86
2022/06/17 01:31:31;;;;;;;2.47;1.27;;;16.60;83.70;;;;;;6278855;28;20434;-84
2022/06/17 01:34:33;;;;;;;5.05;1.55;;;16.50;83.70;;;;;;6278369;28;20059;-85
2022/06/17 01:37:35;;;;;;;2.03;1.05;;;16.60;84.50;;;;;;6278293;28;20056;-85
2022/06/17 01:40:38;;;;;;;2.08;1.30;;;16.40;84.60;;;;;;6277560;28;20040;-83
2022/06/17 01:43:46;;;;;;;2.38;1.40;;;16.30;85.40;;;;;;6277635;28;20048;-84
2022/06/17 01:46:51;;;;;;;1.58;1.05;;;16.30;85.60;;;;;;6278167;28;20045;-83
2022/06/17 01:49:57;;;;;;;3.00;1.48;;;16.30;85.50;;;;;;6278379;28;20107;-85
2022/06/17 01:53:02;;;;;;;2.35;1.15;;;16.30;85.40;;;;;;6277616;28;20048;-84
2022/06/17 01:56:10;;;;;;;2.17;1.13;;;16.40;85.30;;;;;;6277713;28;20682;-83
2022/06/17 01:59:16;;;;;;;1.52;1.08;;;16.30;85.50;;;;;;6278161;28;20057;-85
2022/06/17 02:02:19;;;;;;;2.38;1.02;;;16.40;85.70;;;;;;6278721;28;20048;-86
2022/06/17 02:05:24;;;;;;;8.98;1.27;;;16.30;85.90;;;;;;6277896;28;20045;-83
2022/06/17 02:08:26;;;;;;;3.08;1.05;;;16.30;86.00;;;;;;6270993;28;20052;-86
2022/06/17 02:11:29;;;;;;;2.65;1.17;;;16.30;86.30;;;;;;6253661;28;20510;-84
2022/06/17 02:14:33;;;;;;;5.10;1.27;;;16.20;86.40;;;;;;6252927;28;20049;-84
2022/06/17 02:17:41;;;;;;;1.65;1.27;;;16.10;86.80;;;;;;6255803;28;20058;-82
2022/06/17 02:20:43;;;;;;;;;;;16.10;86.90;;;;;;6255499;28;20041;-82
2022/06/17 02:23:45;;;;;;;1.85;0.93;;;16.00;87.20;;;;;;6253772;28;19921;-85
2022/06/17 02:26:49;;;;;;;5.22;1.20;;;16.00;86.90;;;;;;6253525;28;20423;-85
2022/06/17 02:29:52;;;;;;;1.42;1.13;;;16.00;87.10;;;;;;6253257;28;20061;-86
2022/06/17 02:32:57;;;;;;;6.97;1.45;;;15.90;87.30;;;;;;6253099;28;20064;-83
2022/06/17 02:36:05;;;;;;;6.53;1.67;;;15.80;87.90;;;;;;6253266;28;20478;-84
2022/06/17 02:39:07;;;;;;;1.45;1.10;;;15.80;88.30;;;;;;6252882;28;20049;-86
2022/06/17 02:42:17;;;;;;;4.85;1.10;;;15.80;88.50;;;;;;6253330;28;20049;-85
2022/06/17 02:45:24;;;;;;;4.00;1.15;;;15.70;88.60;;;;;;6253769;28;20056;-85
2022/06/17 02:48:28;;;;;;;2.80;1.40;;;15.70;88.80;;;;;;6253518;28;20128;-86
2022/06/17 02:51:33;;;;;;;4.55;1.45;;;15.60;88.80;;;;;;6253196;28;20056;-86
2022/06/17 02:54:40;;;;;;;4.50;1.13;;;15.60;89.20;;;;;;6252811;28;20525;-86
2022/06/17 02:57:46;;;;;;;1.90;1.17;;;15.60;89.50;;;;;;6252965;28;20065;-83
2022/06/17 03:00:47;;;;;;;2.67;1.20;;;15.60;89.40;;;;;;6253186;28;20045;-85
2022/06/17 03:03:51;;;;;;;1.63;1.00;;;15.60;89.70;;;;;;6253313;28;20052;-85
2022/06/17 03:06:53;;;;;;;2.15;1.30;;;15.50;89.80;;;;;;6253307;28;20144;-85
2022/06/17 03:09:55;;;;;;;1.55;0.95;;;15.40;90.00;;;;;;6268577;28;20045;-86
2022/06/17 03:13:02;;;;;;;1.30;0.93;;;15.40;90.20;;;;;;6278052;28;20059;-86
2022/06/17 03:16:06;;;;;;;1.88;0.95;;;15.40;90.40;;;;;;6278828;28;20055;-84
2022/06/17 03:19:08;;;;;;;4.35;1.13;;;15.30;90.40;;;;;;6280188;28;20041;-85
2022/06/17 03:22:13;;;;;;;3.95;1.52;;;15.30;90.50;;;;;;6279975;28;20414;-85
2022/06/17 03:25:20;;;;;;;3.92;1.27;;;15.30;90.40;;;;;;6281261;28;20065;-85
2022/06/17 03:28:31;;;;;;;4.18;1.35;;;15.30;90.30;;;;;;6280319;28;20514;-83
2022/06/17 03:31:38;;;;;;;2.72;1.20;;;15.20;90.40;;;;;;6295502;28;20097;-83
2022/06/17 03:34:45;;;;;;;4.60;1.10;;;15.30;90.70;;;;;;6277215;28;20060;-84
2022/06/17 03:37:54;;;;;;;1.33;0.95;;;15.30;90.90;;;;;;6276642;28;20048;-84
2022/06/17 03:41:01;;;;;;;4.03;1.27;;;15.50;90.80;;;;;;6276001;28;20041;-84
2022/06/17 03:44:08;;;;;;;1.45;0.95;;;15.60;90.50;;;;;;6280095;28;20044;-83
2022/06/17 03:47:17;;;;;;;1.65;1.25;;;15.60;90.30;;;;;;6281649;28;20507;-84
2022/06/17 03:50:24;;;;;;;2.30;1.08;;;15.70;90.30;;;;;;6282709;28;20055;-83
2022/06/17 03:53:28;;;;;;;2.20;1.05;;;15.80;90.20;;;;;;6282261;28;20052;-85
2022/06/17 03:56:33;;;;;;;3.08;1.35;;;15.90;90.10;;;;;;6281446;28;20056;-84
2022/06/17 03:59:38;;;;;;;2.33;1.33;;;16.00;90.00;;;;;;6280827;28;20045;-83
2022/06/17 04:02:40;;;;;;;3.58;1.27;;;16.20;89.60;;;;;;6281941;28;20051;-84
2022/06/17 04:05:43;;;;;;;3.40;1.02;;;16.20;89.20;;;;;;6282100;28;20045;-82
2022/06/17 04:08:52;;;;;;;4.70;1.25;;;16.30;89.60;;;;;;6280996;28;20045;-85
2022/06/17 04:11:58;;;;;;;3.08;1.30;;;16.40;88.90;;;;;;6261074;28;20052;-85
2022/06/17 04:15:12;;;;;;;3.67;1.20;;;16.60;88.30;;;;;;6255905;28;20418;-82
2022/06/17 04:18:14;;;;;;;2.55;1.55;;;16.70;87.80;;;;;;6256221;28;20057;-85
2022/06/17 04:21:15;;;;;;;2.67;1.05;;;16.80;87.10;;;;;;6255730;28;20462;-84
2022/06/17 04:24:21;;;;;;;4.40;1.30;;;17.00;86.80;;;;;;6256019;28;20048;-84
2022/06/17 04:27:24;;;;;;;2.13;0.93;;;17.20;86.30;;;;;;6255774;28;20418;-83
2022/06/17 04:30:32;;;;;;;2.08;1.38;;;17.50;85.10;;;;;;6256322;28;20375;-85
2022/06/17 04:33:41;;;;;;;1.27;0.70;;;18.00;83.80;;;;;;6257168;28;20041;-84
2022/06/17 04:36:47;;;;;;;2.25;0.98;;;18.60;82.40;;;;;;6256109;28;20057;-83
2022/06/17 04:39:53;;;;;;;5.35;1.15;;;20.00;78.80;;;;;;6255947;28;20041;-86
2022/06/17 04:42:55;;;;;;;4.15;0.90;;;22.10;72.20;;;;;;6255977;28;20064;-84
2022/06/17 04:46:04;;;;;;;2.15;1.17;;;23.90;66.00;;;;;;6256561;28;20056;-83
2022/06/17 04:49:07;;;;;;;7.63;1.70;;;25.90;59.20;;;;;;6255318;28;20049;-84
2022/06/17 04:52:22;;;;;;;1.60;1.25;;;27.90;53.50;;;;;;6255180;28;20044;-83
2022/06/17 04:55:28;;;;;;;3.92;1.15;;;29.50;47.80;;;;;;6255842;28;20048;-84
2022/06/17 04:58:30;;;;;;;2.30;1.08;;;30.40;44.10;;;;;;6255924;28;20060;-85
2022/06/17 05:01:33;;;;;;;3.00;0.90;;;30.10;42.60;;;;;;6255696;28;20045;-83
2022/06/17 05:04:35;;;;;;;3.65;1.23;;;29.40;43.40;;;;;;6254799;28;20049;-84
2022/06/17 05:07:41;;;;;;;4.30;1.25;;;29.50;43.80;;;;;;6255443;28;20045;-84
2022/06/17 05:10:47;;;;;;;4.63;1.17;;;30.50;41.80;;;;;;6263900;28;20055;-85
2022/06/17 05:13:53;;;;;;;4.97;0.90;;;31.40;39.80;;;;;;6280517;28;20141;-84
2022/06/17 05:16:58;;;;;;;4.45;1.88;;;31.40;39.00;;;;;;6279534;28;20045;-84
2022/06/17 05:20:00;;;;;;;1.85;1.00;;;31.30;39.40;;;;;;6278699;28;20068;-84
2022/06/17 05:23:04;;;;;;;4.13;0.90;;;31.80;37.80;;;;;;6278415;28;20045;-83
2022/06/17 05:26:06;;;;;;;4.82;1.00;;;32.10;37.00;;;;;;6278288;28;20048;-85
2022/06/17 05:29:09;;;;;;;4.90;0.60;;;32.50;36.50;;;;;;6277470;28;20414;-85
2022/06/17 05:32:14;;;;;;;3.55;1.00;;;33.40;36.10;;;;;;6278097;28;20490;-82
2022/06/17 05:35:16;;;;;;;4.72;0.90;;;32.40;35.80;;;;;;6277822;28;20049;-82
2022/06/17 05:38:18;;;;;;;1.63;0.73;;;30.70;38.30;;;;;;6278352;28;20051;-82
2022/06/17 05:41:24;;;;;;;4.72;0.70;;;29.40;39.80;;;;;;6276980;28;20052;-80
2022/06/17 05:44:26;;;;;;;2.60;0.93;;;28.40;40.60;;;;;;6279738;28;20195;-82
2022/06/17 05:47:29;;;;;;;1.95;1.00;;;27.90;41.60;;;;;;6279374;28;20045;-81
2022/06/17 05:50:31;;;;;;;0.90;0.40;;;27.90;41.30;;;;;;6277708;28;20414;-80
2022/06/17 05:53:33;;;;;;;1.95;0.85;;;27.60;41.40;;;;;;6278255;28;20041;-82
2022/06/17 05:56:35;;;;;;;1.58;0.60;;;27.30;41.70;;;;;;6277874;28;20052;-81
2022/06/17 05:59:37;;;;;;;4.03;0.80;;;26.70;42.50;;;;;;6277570;28;20522;-81
2022/06/17 06:02:40;;;;;;;2.53;0.65;;;26.10;43.70;;;;;;6277756;28;20067;-81
2022/06/17 06:05:42;;;;;;;1.23;0.38;;;25.90;44.10;;;;;;6277551;28;20045;-80
2022/06/17 06:08:44;;;;;;;3.15;0.65;;;25.60;44.10;;;;;;6277600;28;20048;-81
2022/06/17 06:11:45;;;;;;;4.40;1.00;;;25.20;45.20;;;;;;6271559;28;20511;-81
2022/06/17 06:14:47;;;;;;;1.65;0.60;;;24.70;47.00;;;;;;6256237;28;20049;-81
2022/06/17 06:17:50;;;;;;;1.05;0.60;;;24.30;48.20;;;;;;6253037;28;20060;-81
2022/06/17 06:20:52;;;;;;;5.35;0.60;;;24.10;48.70;;;;;;6253502;28;20067;-80
2022/06/17 06:23:56;;;;;;;2.25;0.75;;;23.80;49.50;;;;;;6252830;28;20056;-81
2022/06/17 06:26:57;;;;;;;0.93;0.40;;;23.60;49.40;;;;;;6253138;28;20059;-81
2022/06/17 06:29:59;;;;;;;3.10;0.85;;;23.60;49.80;;;;;;6253340;28;20052;-80
2022/06/17 06:33:03;;;;;;;2.25;0.77;;;23.60;50.30;;;;;;6252888;28;20051;-82
2022/06/17 06:36:05;;;;;;;0.50;0.50;;;23.60;49.90;;;;;;6252745;28;20132;-82
2022/06/17 06:39:07;;;;;;;1.83;0.75;;;23.70;50.70;;;;;;6252577;28;20045;-81
2022/06/17 06:42:09;;;;;;;1.02;0.60;;;23.80;50.60;;;;;;6253684;28;20079;-82
2022/06/17 06:45:16;;;;;;;1.08;0.50;;;23.80;50.90;;;;;;6252335;28;20069;-82
2022/06/17 06:48:22;;;;;;;2.88;0.77;;;23.80;50.80;;;;;;6252328;28;20523;-81
2022/06/17 06:51:24;;;;;;;2.17;0.75;;;23.90;50.70;;;;;;6252792;28;20052;-82
2022/06/17 06:54:25;;;;;;;1.77;0.50;;;24.10;50.50;;;;;;6253849;28;20056;-82
2022/06/17 06:57:27;;;;;;;2.25;0.77;;;24.30;50.00;;;;;;6253556;28;20054;-81
2022/06/17 07:00:33;;;;;;;2.10;0.60;;;24.40;50.20;;;;;;6251950;28;20052;-82
2022/06/17 07:03:36;;;;;;;2.58;0.63;;;24.40;49.70;;;;;;6253040;28;20521;-81
2022/06/17 07:06:38;;;;;;;2.38;0.73;;;24.50;50.00;;;;;;6252500;28;20049;-81
2022/06/17 07:09:40;;;;;;;2.38;0.57;;;24.60;49.70;;;;;;6253926;28;20438;-82
2022/06/17 07:12:42;;;;;;;2.83;0.60;;;24.70;49.80;;;;;;6258775;28;20391;-81
2022/06/17 07:15:46;;;;;;;2.67;0.50;;;24.80;49.20;;;;;;6257621;28;20056;-82
2022/06/17 07:18:49;;;;;;;7.47;1.05;;;24.70;49.70;;;;;;6251489;28;20068;-82
2022/06/17 07:21:51;;;;;;;1.88;0.80;;;25.00;49.70;;;;;;6223425;28;20057;-81
2022/06/17 07:24:53;;;;;;;1.95;0.88;;;25.30;50.00;;;;;;6243143;28;20108;-82
2022/06/17 07:27:54;;;;;;;3.15;0.70;;;25.50;49.20;;;;;;6289032;28;20025;-80
2022/06/17 07:30:57;;;;;;;0.68;0.40;;;25.60;48.60;;;;;;6277732;28;20056;-82
2022/06/17 07:34:00;;;;;;;0.70;0.40;;;25.70;48.80;;;;;;6275688;28;20463;-83
2022/06/17 07:40:22;;;;;;;2.90;0.50;;;26.10;48.30;;;;;;6277253;28;20068;-80
2022/06/17 07:43:23;;;;;;;6.60;0.80;;;26.40;47.70;;;;;;6275652;28;20518;-81
2022/06/17 07:46:25;;;;;;;2.50;0.60;;;26.50;47.80;;;;;;6276033;28;20052;-81
2022/06/17 07:49:28;;;;;;;1.88;0.82;;;26.60;47.40;;;;;;6275880;28;20065;-81
2022/06/17 07:52:31;;;;;;;3.47;0.70;;;26.80;47.80;;;;;;6275751;28;20570;-81
2022/06/17 07:55:33;;;;;;;2.75;0.52;;;26.80;47.30;;;;;;6275632;28;20059;-80
2022/06/17 07:58:34;;;;;;;4.85;0.80;;;26.90;47.40;;;;;;6275322;28;20049;-82
2022/06/17 08:01:36;;;;;;;4.63;0.77;;;26.90;47.00;;;;;;6280387;28;20059;-82
2022/06/17 08:04:41;;;;;;;0.98;0.57;;;27.20;46.60;;;;;;6278644;28;20049;-81
2022/06/17 08:07:42;;;;;;;4.07;0.85;;;27.50;46.10;;;;;;6278627;28;20049;-82
2022/06/17 08:10:44;;;;;;;3.10;0.90;;;27.70;45.70;;;;;;6278140;28;20057;-83
2022/06/17 08:13:46;;;;;;;1.45;0.68;;;27.90;45.10;;;;;;6276531;28;20045;-81
2022/06/17 08:16:48;;;;;;;2.28;0.80;;;28.00;44.80;;;;;;6258405;28;20076;-82
2022/06/17 08:19:55;;;;;;;2.85;0.77;;;28.00;45.40;;;;;;6251816;28;20075;-80
2022/06/17 08:22:57;;;;;;;2.97;0.60;;;28.00;44.50;;;;;;6251884;28;20045;-84
2022/06/17 08:26:00;;;;;;;4.53;0.73;;;28.10;44.40;;;;;;6265705;28;20048;-83
2022/06/17 08:29:02;;;;;;;3.80;0.90;;;28.00;44.70;;;;;;6277741;28;20049;-82
2022/06/17 08:35:23;;;;;;;5.85;1.00;;;28.20;44.30;;;;;;6278353;28;20071;-80
2022/06/17 08:38:28;;;;;;;4.25;0.68;;;28.50;44.00;;;;;;6282445;28;20045;-82
2022/06/17 08:41:32;;;;;;;1.38;0.57;;;28.40;44.00;;;;;;6285402;28;20059;-82
2022/06/17 08:44:44;;;;;;;1.65;0.52;;;28.60;42.40;;;;;;6283016;28;20056;-82
2022/06/17 08:47:59;;;;;;;6.13;0.75;;;28.70;43.00;;;;;;6279885;28;20442;-82
2022/06/17 08:51:14;;;;;;;3.67;0.90;;;28.90;42.10;;;;;;6281903;28;20041;-81
2022/06/17 08:54:27;;;;;;;3.70;0.68;;;29.10;42.10;;;;;;6281475;28;20048;-81
2022/06/17 08:57:36;;;;;;;2.63;0.80;;;29.10;41.60;;;;;;6282518;28;20490;-81
2022/06/17 09:00:45;;;;;;;2.55;0.63;;;28.90;41.70;;;;;;6280339;28;20629;-81
2022/06/17 09:04:06;;;;;;;2.72;0.60;;;28.90;42.00;;;;;;6282154;28;20051;-82
2022/06/17 09:07:23;;;;;;;4.97;0.63;;;28.90;40.50;;;;;;6281782;28;20049;-82
2022/06/17 09:10:35;;;;;;;2.92;0.55;;;29.10;40.80;;;;;;6284328;28;20067;-81
2022/06/17 09:13:45;;;;;;;2.72;0.63;;;29.40;39.60;;;;;;6284495;28;20041;-82
2022/06/17 09:16:58;;;;;;;1.05;0.47;;;29.70;39.20;;;;;;6267591;28;20053;-81
2022/06/17 09:20:04;;;;;;;8.07;0.93;;;29.70;39.90;;;;;;6256632;28;20041;-82
2022/06/17 09:23:12;;;;;;;3.65;0.73;;;29.80;39.10;;;;;;6270902;28;20040;-81
2022/06/17 09:26:21;;;;;;;3.90;0.50;;;30.10;38.70;;;;;;6281402;28;20059;-81
2022/06/17 09:29:27;;;;;;;5.20;0.98;;;30.30;38.50;;;;;;6257412;28;20065;-82
2022/06/17 09:32:32;;;;;;;5.00;1.05;;;30.60;38.90;;;;;;6256604;28;20128;-83
2022/06/17 09:35:37;;;;;;;4.85;0.70;;;30.60;38.50;;;;;;6253993;28;20522;-81
2022/06/17 09:38:43;;;;;;;7.70;0.88;;;30.90;38.30;;;;;;6255388;28;20065;-82
2022/06/17 09:41:53;;;;;;;5.40;1.15;;;30.80;38.30;;;;;;6255538;28;20068;-82
2022/06/17 09:44:59;;;;;;;2.63;0.52;;;31.00;38.20;;;;;;6255720;28;20046;-81
2022/06/17 09:48:05;;;;;;;3.53;0.65;;;30.90;37.40;;;;;;6255645;28;20045;-82
2022/06/17 09:51:11;;;;;;;0.98;0.60;;;30.80;36.50;;;;;;6256889;28;20047;-82
2022/06/17 09:54:22;;;;;;;2.78;0.88;;;30.80;36.30;;;;;;6258111;28;20053;-82
2022/06/17 09:57:29;;;;;;;1.48;0.50;;;30.90;36.70;;;;;;6285893;28;20044;-82
2022/06/17 10:00:36;;;;;;;3.97;0.70;;;31.20;36.20;;;;;;6278625;28;20045;-82
2022/06/17 10:03:40;;;;;;;2.08;0.52;;;31.60;35.50;;;;;;6279006;28;20045;-82
2022/06/17 10:06:50;;;;;;;1.65;0.60;;;31.80;34.60;;;;;;6279926;28;20049;-81
2022/06/17 10:10:05;;;;;;;1.90;0.60;;;32.20;33.70;;;;;;6280296;28;20049;-81
2022/06/17 10:13:17;;;;;;;2.13;0.65;;;32.80;33.60;;;;;;6279410;28;20041;-82
2022/06/17 10:19:59;;;;;;;2.65;0.60;;;34.90;32.00;;;;;;6280329;28;20060;-81
2022/06/17 10:23:12;;;;;;;1.95;0.77;;;35.20;31.00;;;;;;6279017;28;20033;-82
2022/06/17 10:26:26;;;;;;;2.97;0.45;;;34.80;30.20;;;;;;6279067;28;20053;-81
2022/06/17 10:29:45;;;;;;;2.60;0.50;;;34.40;30.30;;;;;;6279872;28;20053;-82
2022/06/17 10:32:50;;;;;;;0.52;0.30;;;33.80;30.90;;;;;;6279214;28;20457;-82
2022/06/17 10:35:52;;;;;;;2.53;0.60;;;33.70;31.60;;;;;;6279692;28;20048;-82
2022/06/17 10:38:54;;;;;;;0.40;0.30;;;33.70;32.20;;;;;;6279909;28;20047;-82
2022/06/17 10:41:58;;;;;;;1.25;0.40;;;33.90;32.60;;;;;;6280680;28;20059;-82
2022/06/17 10:45:02;;;;;;;1.73;0.50;;;34.00;31.60;;;;;;6279436;28;20422;-81
2022/06/17 10:48:11;;;;;;;0.68;0.20;;;34.00;31.50;;;;;;6279896;28;20052;-82
2022/06/17 10:51:13;;;;;;;1.05;0.32;;;34.00;30.40;;;;;;6282010;28;20051;-83
2022/06/17 10:54:21;;;;;;;1.02;0.30;;;34.20;30.40;;;;;;6281740;28;20406;-82
2022/06/17 10:57:26;;;;;;;16.25;1.27;;;34.00;30.80;;;;;;6282471;28;20044;-82
2022/06/17 11:00:30;;;;;;;0.90;0.35;;;33.70;31.30;;;;;;6282247;28;20051;-82
2022/06/17 11:03:34;;;;;;;2.30;0.40;;;33.60;31.50;;;;;;6282255;28;20045;-82
2022/06/17 11:06:46;;;;;;;1.80;0.50;;;33.80;31.20;;;;;;6282486;28;20057;-82
2022/06/17 11:09:52;;;;;;;1.45;0.40;;;34.40;31.00;;;;;;6283613;28;20055;-82
2022/06/17 11:13:00;;;;;;;3.97;0.35;;;34.80;29.80;;;;;;6283809;28;20041;-82
2022/06/17 11:16:01;;;;;;;7.68;0.65;;;34.60;30.00;;;;;;6283141;28;20044;-82
2022/06/17 11:19:07;;;;;;;1.65;0.30;;;34.70;30.20;;;;;;6261842;28;20045;-82
2022/06/17 11:22:19;;;;;;;1.65;0.70;;;35.00;30.00;;;;;;6260904;28;20420;-82
2022/06/17 11:25:25;;;;;;;2.20;0.43;;;35.40;29.70;;;;;;6268933;28;20037;-82
2022/06/17 11:28:36;;;;;;;0.47;0.37;;;35.80;29.80;;;;;;6288455;28;20025;-81
2022/06/17 11:31:45;;;;;;;1.88;0.30;;;36.20;29.70;;;;;;6279076;28;20053;-82
2022/06/17 11:34:50;;;;;;;1.42;0.32;;;36.00;28.50;;;;;;6277714;28;20051;-82
2022/06/17 11:37:53;;;;;;;1.70;0.35;;;35.60;28.60;;;;;;6279771;28;20122;-81
2022/06/17 11:40:56;;;;;;;0.68;0.20;;;35.20;28.70;;;;;;6278437;28;20411;-81
2022/06/17 11:44:09;;;;;;;1.70;0.65;;;35.10;29.00;;;;;;6274329;28;20041;-82
2022/06/17 11:47:10;;;;;;;1.95;0.30;;;34.90;28.20;;;;;;6278014;28;20045;-82
2022/06/17 11:50:16;;;;;;;1.38;0.30;;;35.00;27.70;;;;;;6278781;28;20056;-81
2022/06/17 11:53:19;;;;;;;2.05;0.20;;;35.10;28.60;;;;;;6278433;28;20384;-82
2022/06/17 11:56:39;;;;;;;1.42;0.17;;;35.20;28.80;;;;;;6274804;28;20062;-80
2022/06/17 11:59:45;;;;;;;5.90;0.40;;;35.10;27.30;;;;;;6260599;28;20049;-82
2022/06/17 12:02:54;;;;;;;2.47;0.25;;;35.20;27.00;;;;;;6259634;28;20056;-82
2022/06/17 12:05:59;;;;;;;2.40;0.10;;;35.30;27.10;;;;;;6257954;28;20045;-84
2022/06/17 12:09:12;;;;;;;1.27;0.10;;;35.70;26.10;;;;;;6271176;28;20072;-85
2022/06/17 12:12:16;;;;;;;1.95;0.13;;;36.30;26.50;;;;;;6258634;28;20049;-85
2022/06/17 12:15:27;;;;;;;0.38;0.10;;;36.80;26.10;;;;;;6273555;28;20041;-82
2022/06/17 12:18:34;;;;;;;2.28;0.30;;;37.20;25.70;;;;;;6269372;28;20060;-83
2022/06/17 12:21:47;;;;;;;0.40;0.28;;;37.60;26.00;;;;;;6259005;28;20143;-84
2022/06/17 12:24:55;;;;;;;1.08;0.30;;;37.90;26.40;;;;;;6257243;28;20041;-82
2022/06/17 12:28:05;;;;;;;5.75;0.30;;;38.00;25.70;;;;;;6291809;28;20041;-82
2022/06/17 12:31:19;;;;;;;0.00;0.00;;;37.60;25.20;;;;;;6300388;28;20120;-82
2022/06/17 12:34:31;;;;;;;3.67;0.20;;;37.10;25.80;;;;;;6301209;28;20112;-83
2022/06/17 12:37:42;;;;;;;0.63;0.20;;;36.70;26.00;;;;;;6299938;28;20175;-82
2022/06/17 12:40:49;;;;;;;1.35;0.30;;;36.60;26.10;;;;;;6298035;28;20045;-81
2022/06/17 12:44:05;;;;;;;0.73;0.13;;;36.80;25.70;;;;;;6296615;28;20045;-82
2022/06/17 12:47:16;;;;;;;5.47;0.32;;;36.80;25.50;;;;;;6300705;28;20124;-83
2022/06/17 12:53:54;;;;;;;5.95;0.43;;;36.80;26.40;;;;;;6301702;28;20045;-83
2022/06/17 12:57:03;;;;;;;1.00;0.20;;;36.40;26.30;;;;;;6301210;28;20101;-83
2022/06/17 13:00:07;;;;;;;1.85;0.47;;;36.40;26.50;;;;;;6301484;28;20053;-84
2022/06/17 13:03:48;;;;;;;0.63;0.20;;;36.70;26.50;;;;;;6301054;28;20097;-83
2022/06/17 13:07:01;;;;;;;2.53;0.30;;;37.20;26.40;;;;;;6301870;28;20040;-82
2022/06/17 13:13:51;;;;;;;1.58;0.15;;;37.60;25.80;;;;;;6268398;28;20049;-80
2022/06/17 13:17:00;;;;;;;4.05;0.22;;;36.80;26.10;;;;;;6265790;28;20045;-80
2022/06/17 13:20:10;;;;;;;0.85;0.30;;;36.50;26.50;;;;;;6265414;28;20101;-80
2022/06/17 13:23:20;;;;;;;1.67;0.40;;;36.50;26.70;;;;;;6290472;28;20037;-81
2022/06/17 13:26:24;;;;;;;0.77;0.20;;;36.80;26.90;;;;;;6291172;28;20084;-81
2022/06/17 13:29:35;;;;;;;0.40;0.20;;;37.20;26.70;;;;;;6292144;28;20085;-81
2022/06/17 13:32:41;;;;;;;1.00;0.20;;;37.00;25.70;;;;;;6292382;28;20137;-81
2022/06/17 13:35:49;;;;;;;1.05;0.30;;;36.30;26.20;;;;;;6291315;28;20116;-81
2022/06/17 13:38:59;;;;;;;2.22;0.40;;;36.20;26.40;;;;;;6292626;28;20051;-81
2022/06/17 13:42:03;;;;;;;1.65;0.40;;;36.30;26.60;;;;;;6294890;28;20121;-81
2022/06/17 13:45:18;;;;;;;0.75;0.30;;;36.50;26.80;;;;;;6294454;28;20037;-81
2022/06/17 13:48:29;;;;;;;0.40;0.30;;;36.50;26.50;;;;;;6294376;28;20063;-82
2022/06/17 13:51:38;;;;;;;0.50;0.15;;;36.80;26.20;;;;;;6288426;28;20052;-82
2022/06/17 13:54:49;;;;;;;2.38;0.13;;;37.30;26.00;;;;;;6279776;28;20144;-82
2022/06/17 13:57:58;;;;;;;1.35;0.30;;;37.90;25.80;;;;;;6280078;28;20049;-82
2022/06/17 14:01:09;;;;;;;3.35;0.35;;;38.30;25.80;;;;;;6279664;28;20071;-80
2022/06/17 14:04:20;;;;;;;2.05;0.40;;;37.90;26.10;;;;;;6278859;28;20048;-81
2022/06/17 14:07:24;;;;;;;1.17;0.28;;;37.60;26.40;;;;;;6279621;28;20552;-82
2022/06/17 14:10:40;;;;;;;2.38;0.52;;;37.60;26.40;;;;;;6280527;28;20059;-81
2022/06/17 14:13:42;;;;;;;2.97;0.35;;;37.20;26.70;;;;;;6280674;28;20098;-82
2022/06/17 14:16:45;;;;;;;1.27;0.30;;;37.30;26.90;;;;;;6279243;28;20060;-83
2022/06/17 14:19:51;;;;;;;2.50;0.32;;;37.50;26.90;;;;;;6270343;28;20050;-82
2022/06/17 14:23:15;;;;;;;1.98;0.10;;;37.70;26.60;;;;;;6287440;28;20124;-82
2022/06/17 14:26:52;;;;;;;2.00;0.50;;;37.50;27.00;;;;;;6297748;28;20072;-85
2022/06/17 14:30:33;;;;;;;0.55;0.35;;;37.50;26.90;;;;;;6296994;28;20044;-82
2022/06/17 14:33:42;;;;;;;7.32;0.43;;;37.60;26.60;;;;;;6298896;28;20073;-85
2022/06/17 14:36:52;;;;;;;1.85;0.30;;;37.10;26.90;;;;;;6297600;28;20089;-81
2022/06/17 14:40:05;;;;;;;0.65;0.35;;;36.60;27.10;;;;;;6298223;28;20055;-80
2022/06/17 14:43:15;;;;;;;3.15;0.40;;;36.40;27.30;;;;;;6299499;28;20040;-85
2022/06/17 14:46:19;;;;;;;0.47;0.22;;;36.60;27.30;;;;;;6299092;28;20083;-84
2022/06/17 14:49:43;;;;;;;1.83;0.40;;;36.90;27.10;;;;;;6299236;28;20113;-84
2022/06/17 14:52:48;;;;;;;0.40;0.10;;;37.10;26.90;;;;;;6299858;28;20100;-83
2022/06/17 14:56:28;;;;;;;2.55;0.22;;;37.30;27.10;;;;;;6313777;28;20055;-81
2022/06/17 14:59:34;;;;;;;1.23;0.30;;;37.20;27.00;;;;;;6322678;28;20044;-83
2022/06/17 15:02:45;;;;;;;2.38;0.52;;;37.00;27.20;;;;;;6320696;28;20048;-83
2022/06/17 15:05:46;;;;;;;1.75;0.38;;;36.60;27.30;;;;;;6317253;28;20049;-83
2022/06/17 15:08:52;;;;;;;0.57;0.13;;;36.60;27.00;;;;;;6302029;28;20186;-84
2022/06/17 15:12:02;;;;;;;7.13;0.40;;;36.60;27.00;;;;;;6302079;28;20055;-84
2022/06/17 15:15:12;;;;;;;1.73;0.35;;;36.80;27.10;;;;;;6303338;28;20072;-84
2022/06/17 15:18:18;;;;;;;0.95;0.25;;;37.10;27.00;;;;;;6302591;28;20139;-84
2022/06/17 15:21:23;;;;;;;0.40;0.30;;;37.10;26.90;;;;;;6288964;28;20055;-84
2022/06/17 15:24:50;;;;;;;0.95;0.10;;;37.00;26.90;;;;;;6279402;28;20040;-82
2022/06/17 15:27:59;;;;;;;1.00;0.40;;;37.00;26.90;;;;;;6277560;28;20497;-84
2022/06/17 15:31:08;;;;;;;0.40;0.20;;;37.20;27.00;;;;;;6277361;28;20128;-83
2022/06/17 15:34:15;;;;;;;0.40;0.20;;;37.40;27.20;;;;;;6278988;28;20049;-83
2022/06/17 15:37:30;;;;;;;2.40;0.40;;;37.50;26.80;;;;;;6277605;28;20128;-84
2022/06/17 15:40:34;;;;;;;0.70;0.20;;;37.10;26.70;;;;;;6277401;28;20055;-83
2022/06/17 15:43:49;;;;;;;0.70;0.20;;;36.50;27.10;;;;;;6278435;28;20049;-83
2022/06/17 15:46:55;;;;;;;0.82;0.30;;;36.60;27.00;;;;;;6278020;28;20041;-83
2022/06/17 15:49:59;;;;;;;2.83;1.08;;;36.50;27.30;;;;;;6274055;28;20052;-84
2022/06/17 15:53:03;;;;;;;0.70;0.20;;;36.70;27.60;;;;;;6277535;28;20068;-83
2022/06/17 15:56:08;;;;;;;1.40;0.40;;;36.90;27.50;;;;;;6278482;28;20048;-84
2022/06/17 15:59:17;;;;;;;0.35;0.13;;;36.90;27.70;;;;;;6277242;28;20051;-83
2022/06/17 16:02:24;;;;;;;1.30;0.47;;;37.20;27.10;;;;;;6277712;28;20070;-83
2022/06/17 16:05:30;;;;;;;1.60;0.90;;;36.80;27.10;;;;;;6277508;28;20045;-83
2022/06/17 16:08:38;;;;;;;1.88;0.20;;;36.50;27.50;;;;;;6277012;28;20049;-83
2022/06/17 16:11:40;;;;;;;0.50;0.28;;;36.10;27.50;;;;;;6277570;28;20045;-83
2022/06/17 16:14:53;;;;;;;3.35;0.40;;;35.70;27.70;;;;;;6275731;28;20063;-82
2022/06/17 16:18:30;;;;;;;2.25;0.22;;;35.70;27.80;;;;;;6275457;28;20494;-84
2022/06/17 16:21:35;;;;;;;0.80;0.45;;;36.00;27.70;;;;;;6270938;28;20056;-84
2022/06/17 16:24:43;;;;;;;1.00;0.20;;;35.70;27.80;;;;;;6274067;28;20455;-85
2022/06/17 16:27:49;;;;;;;2.17;0.20;;;35.50;27.80;;;;;;6277804;28;20134;-85
2022/06/17 16:30:55;;;;;;;3.50;0.50;;;35.20;27.90;;;;;;6278687;28;20041;-84
2022/06/17 16:34:04;;;;;;;1.10;0.65;;;35.20;28.20;;;;;;6279041;28;20140;-84